sensor_id;sensor_type;location;lat;lon;timestamp;P1;durP1;ratioP1;P2;durP2;ratioP2
15167;SDS011;7684;52.150;11.656;2022-10-22T04:19:19;10.13;;;8.10;;
15167;SDS011;7684;52.150;11.656;2022-10-22T04:21:46;9.30;;;8.30;;
15167;SDS011;7684;52.150;11.656;2022-10-22T04:24:12;8.27;;;7.43;;
15167;SDS011;7684;52.150;11.656;2022-10-22T04:26:38;8.80;;;8.00;;
15167;SDS011;7684;52.150;11.656;2022-10-22T04:29:05;8.43;;;7.63;;
15167;SDS011;7684;52.150;11.656;2022-10-22T04:31:32;8.37;;;7.57;;
15167;SDS011;7684;52.150;11.656;2022-10-22T04:33:58;7.93;;;7.17;;
15167;SDS011;7684;52.150;11.656;2022-10-22T04:36:27;8.63;;;7.83;;
15167;SDS011;7684;52.150;11.656;2022-10-22T04:38:54;8.50;;;7.63;;
15167;SDS011;7684;52.150;11.656;2022-10-22T04:41:21;8.53;;;7.73;;
15167;SDS011;7684;52.150;11.656;2022-10-22T04:43:48;10.07;;;7.80;;
15167;SDS011;7684;52.150;11.656;2022-10-22T04:46:15;8.67;;;7.87;;
15167;SDS011;7684;52.150;11.656;2022-10-22T04:48:42;7.87;;;7.17;;
15167;SDS011;7684;52.150;11.656;2022-10-22T04:51:10;8.03;;;7.23;;
15167;SDS011;7684;52.150;11.656;2022-10-22T04:53:38;7.83;;;7.03;;
15167;SDS011;7684;52.150;11.656;2022-10-22T04:56:05;8.77;;;7.83;;
15167;SDS011;7684;52.150;11.656;2022-10-22T04:58:32;8.13;;;7.43;;
15167;SDS011;7684;52.150;11.656;2022-10-22T05:00:58;9.60;;;8.60;;
15167;SDS011;7684;52.150;11.656;2022-10-22T05:03:25;10.10;;;7.90;;
15167;SDS011;7684;52.150;11.656;2022-10-22T05:05:51;11.37;;;8.60;;
15167;SDS011;7684;52.150;11.656;2022-10-22T05:08:17;9.73;;;8.17;;
15167;SDS011;7684;52.150;11.656;2022-10-22T05:10:45;8.77;;;7.97;;
15167;SDS011;7684;52.150;11.656;2022-10-22T05:13:11;8.07;;;7.20;;
15167;SDS011;7684;52.150;11.656;2022-10-22T05:15:38;8.23;;;7.53;;
15167;SDS011;7684;52.150;11.656;2022-10-22T05:18:04;8.97;;;7.97;;
15167;SDS011;7684;52.150;11.656;2022-10-22T05:20:31;8.20;;;7.40;;
15167;SDS011;7684;52.150;11.656;2022-10-22T05:22:57;8.37;;;7.53;;
15167;SDS011;7684;52.150;11.656;2022-10-22T05:25:23;8.53;;;7.83;;
15167;SDS011;7684;52.150;11.656;2022-10-22T05:27:51;8.00;;;7.30;;
15167;SDS011;7684;52.150;11.656;2022-10-22T05:30:17;8.40;;;7.70;;
15167;SDS011;7684;52.150;11.656;2022-10-22T05:32:44;8.50;;;7.60;;
15167;SDS011;7684;52.150;11.656;2022-10-22T05:35:10;8.77;;;7.90;;
15167;SDS011;7684;52.150;11.656;2022-10-22T05:37:36;8.33;;;7.00;;
15167;SDS011;7684;52.150;11.656;2022-10-22T05:40:03;8.33;;;7.53;;
15167;SDS011;7684;52.150;11.656;2022-10-22T05:42:31;7.90;;;7.23;;
15167;SDS011;7684;52.150;11.656;2022-10-22T05:44:58;9.13;;;8.23;;
15167;SDS011;7684;52.150;11.656;2022-10-22T05:47:25;8.53;;;7.73;;
15167;SDS011;7684;52.150;11.656;2022-10-22T05:49:51;8.47;;;7.60;;
15167;SDS011;7684;52.150;11.656;2022-10-22T05:52:17;7.53;;;6.83;;
15167;SDS011;7684;52.150;11.656;2022-10-22T05:54:44;8.07;;;7.27;;
15167;SDS011;7684;52.150;11.656;2022-10-22T05:57:10;8.03;;;7.23;;
15167;SDS011;7684;52.150;11.656;2022-10-22T05:59:36;8.00;;;7.30;;
15167;SDS011;7684;52.150;11.656;2022-10-22T06:02:04;8.47;;;7.67;;
15167;SDS011;7684;52.150;11.656;2022-10-22T06:04:31;9.27;;;8.37;;
15167;SDS011;7684;52.150;11.656;2022-10-22T06:06:57;8.20;;;7.40;;
15167;SDS011;7684;52.150;11.656;2022-10-22T06:09:25;7.83;;;7.17;;
15167;SDS011;7684;52.150;11.656;2022-10-22T06:11:52;9.00;;;8.20;;
15167;SDS011;7684;52.150;11.656;2022-10-22T06:14:19;7.77;;;6.97;;
15167;SDS011;7684;52.150;11.656;2022-10-22T06:16:45;8.70;;;7.90;;
15167;SDS011;7684;52.150;11.656;2022-10-22T06:19:14;8.10;;;7.30;;
15167;SDS011;7684;52.150;11.656;2022-10-22T06:21:41;8.47;;;7.67;;
15167;SDS011;7684;52.150;11.656;2022-10-22T06:24:07;8.70;;;7.60;;
15167;SDS011;7684;52.150;11.656;2022-10-22T06:26:34;8.60;;;7.80;;
15167;SDS011;7684;52.150;11.656;2022-10-22T06:29:01;9.50;;;8.50;;
15167;SDS011;7684;52.150;11.656;2022-10-22T06:31:28;9.27;;;8.07;;
15167;SDS011;7684;52.150;11.656;2022-10-22T06:34:00;9.80;;;8.80;;
15167;SDS011;7684;52.150;11.656;2022-10-22T06:36:28;11.97;;;9.03;;
15167;SDS011;7684;52.150;11.656;2022-10-22T06:38:55;10.37;;;8.60;;
15167;SDS011;7684;52.150;11.656;2022-10-22T06:41:21;9.50;;;8.60;;
15167;SDS011;7684;52.150;11.656;2022-10-22T06:43:48;9.47;;;8.57;;
15167;SDS011;7684;52.150;11.656;2022-10-22T06:46:16;8.90;;;8.00;;
15167;SDS011;7684;52.150;11.656;2022-10-22T06:48:42;8.43;;;7.73;;
15167;SDS011;7684;52.150;11.656;2022-10-22T06:51:12;9.13;;;8.30;;
15167;SDS011;7684;52.150;11.656;2022-10-22T06:53:40;9.00;;;8.13;;
15167;SDS011;7684;52.150;11.656;2022-10-22T06:56:07;9.77;;;8.87;;
15167;SDS011;7684;52.150;11.656;2022-10-22T06:58:34;9.80;;;8.43;;
15167;SDS011;7684;52.150;11.656;2022-10-22T07:01:01;10.50;;;9.50;;
15167;SDS011;7684;52.150;11.656;2022-10-22T07:03:28;9.63;;;8.63;;
15167;SDS011;7684;52.150;11.656;2022-10-22T07:05:54;11.43;;;9.10;;
15167;SDS011;7684;52.150;11.656;2022-10-22T07:08:23;9.73;;;8.70;;
15167;SDS011;7684;52.150;11.656;2022-10-22T07:10:51;9.50;;;8.60;;
15167;SDS011;7684;52.150;11.656;2022-10-22T07:13:17;9.93;;;8.93;;
15167;SDS011;7684;52.150;11.656;2022-10-22T07:15:44;8.70;;;7.80;;
15167;SDS011;7684;52.150;11.656;2022-10-22T07:18:10;10.37;;;8.67;;
15167;SDS011;7684;52.150;11.656;2022-10-22T07:20:36;10.73;;;8.77;;
15167;SDS011;7684;52.150;11.656;2022-10-22T07:23:03;10.60;;;8.50;;
15167;SDS011;7684;52.150;11.656;2022-10-22T07:25:29;9.17;;;8.27;;
15167;SDS011;7684;52.150;11.656;2022-10-22T07:27:57;9.83;;;8.50;;
15167;SDS011;7684;52.150;11.656;2022-10-22T07:30:23;9.13;;;8.10;;
15167;SDS011;7684;52.150;11.656;2022-10-22T07:32:49;10.40;;;8.13;;
15167;SDS011;7684;52.150;11.656;2022-10-22T07:35:16;9.37;;;8.10;;
15167;SDS011;7684;52.150;11.656;2022-10-22T07:37:42;10.30;;;9.30;;
15167;SDS011;7684;52.150;11.656;2022-10-22T07:40:09;10.93;;;9.77;;
15167;SDS011;7684;52.150;11.656;2022-10-22T07:42:35;9.70;;;8.70;;
15167;SDS011;7684;52.150;11.656;2022-10-22T07:45:03;9.43;;;8.53;;
15167;SDS011;7684;52.150;11.656;2022-10-22T07:47:30;10.77;;;8.60;;
15167;SDS011;7684;52.150;11.656;2022-10-22T07:49:56;8.90;;;8.10;;
15167;SDS011;7684;52.150;11.656;2022-10-22T07:52:23;9.70;;;8.80;;
15167;SDS011;7684;52.150;11.656;2022-10-22T07:54:49;10.37;;;8.47;;
15167;SDS011;7684;52.150;11.656;2022-10-22T07:57:16;8.50;;;7.67;;
15167;SDS011;7684;52.150;11.656;2022-10-22T07:59:42;7.83;;;7.03;;
15167;SDS011;7684;52.150;11.656;2022-10-22T08:02:10;8.40;;;7.60;;
15167;SDS011;7684;52.150;11.656;2022-10-22T08:04:36;8.53;;;7.40;;
15167;SDS011;7684;52.150;11.656;2022-10-22T08:07:03;8.07;;;7.23;;
15167;SDS011;7684;52.150;11.656;2022-10-22T08:09:29;7.77;;;6.97;;
15167;SDS011;7684;52.150;11.656;2022-10-22T08:11:56;8.80;;;7.37;;
15167;SDS011;7684;52.150;11.656;2022-10-22T08:14:22;9.00;;;6.63;;
15167;SDS011;7684;52.150;11.656;2022-10-22T08:16:48;8.47;;;7.20;;
15167;SDS011;7684;52.150;11.656;2022-10-22T08:19:16;7.57;;;6.80;;
15167;SDS011;7684;52.150;11.656;2022-10-22T08:21:45;7.93;;;6.83;;
15167;SDS011;7684;52.150;11.656;2022-10-22T08:24:11;8.07;;;7.10;;
15167;SDS011;7684;52.150;11.656;2022-10-22T08:26:38;7.47;;;6.77;;
15167;SDS011;7684;52.150;11.656;2022-10-22T08:29:04;8.00;;;7.20;;
15167;SDS011;7684;52.150;11.656;2022-10-22T08:31:30;8.43;;;7.57;;
15167;SDS011;7684;52.150;11.656;2022-10-22T08:33:57;7.80;;;7.07;;
15167;SDS011;7684;52.150;11.656;2022-10-22T08:36:24;8.13;;;6.67;;
15167;SDS011;7684;52.150;11.656;2022-10-22T08:38:51;9.60;;;6.83;;
15167;SDS011;7684;52.150;11.656;2022-10-22T08:41:18;8.67;;;7.77;;
15167;SDS011;7684;52.150;11.656;2022-10-22T08:46:29;7.93;;;7.10;;
15167;SDS011;7684;52.150;11.656;2022-10-22T08:48:59;7.30;;;6.60;;
15167;SDS011;7684;52.150;11.656;2022-10-22T08:51:28;7.43;;;6.83;;
15167;SDS011;7684;52.150;11.656;2022-10-22T08:54:00;7.87;;;6.73;;
15167;SDS011;7684;52.150;11.656;2022-10-22T08:56:31;8.77;;;6.83;;
15167;SDS011;7684;52.150;11.656;2022-10-22T08:59:01;7.77;;;6.97;;
15167;SDS011;7684;52.150;11.656;2022-10-22T09:01:31;7.70;;;6.93;;
15167;SDS011;7684;52.150;11.656;2022-10-22T09:03:59;9.63;;;7.00;;
15167;SDS011;7684;52.150;11.656;2022-10-22T09:06:31;7.93;;;6.80;;
15167;SDS011;7684;52.150;11.656;2022-10-22T09:08:58;6.93;;;6.23;;
15167;SDS011;7684;52.150;11.656;2022-10-22T09:11:27;6.57;;;5.97;;
15167;SDS011;7684;52.150;11.656;2022-10-22T09:13:55;5.97;;;4.80;;
15167;SDS011;7684;52.150;11.656;2022-10-22T09:16:25;5.07;;;4.68;;
15167;SDS011;7684;52.150;11.656;2022-10-22T09:18:59;5.75;;;5.15;;
15167;SDS011;7684;52.150;11.656;2022-10-22T09:21:33;4.10;;;3.70;;
15167;SDS011;7684;52.150;11.656;2022-10-22T09:24:02;5.57;;;4.88;;
15167;SDS011;7684;52.150;11.656;2022-10-22T09:26:30;5.32;;;3.90;;
15167;SDS011;7684;52.150;11.656;2022-10-22T09:28:58;5.13;;;4.43;;
15167;SDS011;7684;52.150;11.656;2022-10-22T09:31:26;5.35;;;4.00;;
15167;SDS011;7684;52.150;11.656;2022-10-22T09:33:53;4.72;;;3.58;;
15167;SDS011;7684;52.150;11.656;2022-10-22T09:36:20;4.45;;;3.88;;
15167;SDS011;7684;52.150;11.656;2022-10-22T09:38:49;3.72;;;3.42;;
15167;SDS011;7684;52.150;11.656;2022-10-22T09:41:16;5.47;;;3.45;;
15167;SDS011;7684;52.150;11.656;2022-10-22T09:43:45;4.40;;;3.45;;
15167;SDS011;7684;52.150;11.656;2022-10-22T09:46:13;3.72;;;3.03;;
15167;SDS011;7684;52.150;11.656;2022-10-22T09:48:41;5.13;;;3.30;;
15167;SDS011;7684;52.150;11.656;2022-10-22T09:51:10;3.80;;;2.83;;
15167;SDS011;7684;52.150;11.656;2022-10-22T09:53:40;3.97;;;3.08;;
15167;SDS011;7684;52.150;11.656;2022-10-22T09:56:09;3.47;;;2.78;;
15167;SDS011;7684;52.150;11.656;2022-10-22T09:58:41;3.92;;;2.80;;
15167;SDS011;7684;52.150;11.656;2022-10-22T10:01:14;3.50;;;2.83;;
15167;SDS011;7684;52.150;11.656;2022-10-22T10:03:41;3.30;;;2.10;;
15167;SDS011;7684;52.150;11.656;2022-10-22T10:06:07;2.35;;;2.15;;
15167;SDS011;7684;52.150;11.656;2022-10-22T10:08:34;5.30;;;1.85;;
15167;SDS011;7684;52.150;11.656;2022-10-22T10:11:01;3.00;;;1.95;;
15167;SDS011;7684;52.150;11.656;2022-10-22T10:13:44;3.05;;;1.67;;
15167;SDS011;7684;52.150;11.656;2022-10-22T10:16:15;4.05;;;1.45;;
15167;SDS011;7684;52.150;11.656;2022-10-22T10:18:52;3.63;;;1.42;;
15167;SDS011;7684;52.150;11.656;2022-10-22T10:21:22;3.33;;;1.60;;
15167;SDS011;7684;52.150;11.656;2022-10-22T10:23:53;3.40;;;1.60;;
15167;SDS011;7684;52.150;11.656;2022-10-22T10:26:24;5.18;;;2.30;;
15167;SDS011;7684;52.150;11.656;2022-10-22T10:29:01;6.20;;;2.15;;
15167;SDS011;7684;52.150;11.656;2022-10-22T10:31:33;1.88;;;1.10;;
15167;SDS011;7684;52.150;11.656;2022-10-22T10:34:04;2.30;;;1.20;;
15167;SDS011;7684;52.150;11.656;2022-10-22T10:36:33;1.98;;;1.27;;
15167;SDS011;7684;52.150;11.656;2022-10-22T10:39:05;5.65;;;1.23;;
15167;SDS011;7684;52.150;11.656;2022-10-22T10:41:37;3.45;;;1.20;;
15167;SDS011;7684;52.150;11.656;2022-10-22T10:46:48;4.40;;;1.55;;
15167;SDS011;7684;52.150;11.656;2022-10-22T10:49:21;3.53;;;1.27;;
15167;SDS011;7684;52.150;11.656;2022-10-22T10:51:50;3.38;;;1.48;;
15167;SDS011;7684;52.150;11.656;2022-10-22T10:54:24;3.63;;;1.25;;
15167;SDS011;7684;52.150;11.656;2022-10-22T10:56:55;3.63;;;1.27;;
15167;SDS011;7684;52.150;11.656;2022-10-22T10:59:25;3.72;;;2.42;;
15167;SDS011;7684;52.150;11.656;2022-10-22T11:02:00;3.70;;;1.90;;
15167;SDS011;7684;52.150;11.656;2022-10-22T11:04:46;2.38;;;1.10;;
15167;SDS011;7684;52.150;11.656;2022-10-22T11:07:16;2.83;;;1.10;;
15167;SDS011;7684;52.150;11.656;2022-10-22T11:09:46;2.30;;;0.80;;
15167;SDS011;7684;52.150;11.656;2022-10-22T11:12:14;2.08;;;0.90;;
15167;SDS011;7684;52.150;11.656;2022-10-22T11:14:45;2.22;;;1.00;;
15167;SDS011;7684;52.150;11.656;2022-10-22T11:17:16;3.95;;;1.15;;
15167;SDS011;7684;52.150;11.656;2022-10-22T11:19:44;3.30;;;1.30;;
15167;SDS011;7684;52.150;11.656;2022-10-22T11:22:14;2.92;;;0.98;;
15167;SDS011;7684;52.150;11.656;2022-10-22T11:24:43;1.80;;;0.90;;
15167;SDS011;7684;52.150;11.656;2022-10-22T11:27:14;4.47;;;1.40;;
15167;SDS011;7684;52.150;11.656;2022-10-22T11:29:46;1.73;;;1.00;;
15167;SDS011;7684;52.150;11.656;2022-10-22T11:32:13;2.78;;;1.10;;
15167;SDS011;7684;52.150;11.656;2022-10-22T11:34:44;3.53;;;1.38;;
15167;SDS011;7684;52.150;11.656;2022-10-22T11:37:12;3.10;;;1.55;;
15167;SDS011;7684;52.150;11.656;2022-10-22T11:39:40;3.05;;;1.10;;
15167;SDS011;7684;52.150;11.656;2022-10-22T11:42:09;2.10;;;1.00;;
15167;SDS011;7684;52.150;11.656;2022-10-22T11:44:45;2.30;;;1.02;;
15167;SDS011;7684;52.150;11.656;2022-10-22T11:47:16;1.88;;;0.90;;
15167;SDS011;7684;52.150;11.656;2022-10-22T11:49:45;1.90;;;0.85;;
15167;SDS011;7684;52.150;11.656;2022-10-22T11:52:23;2.45;;;0.80;;
15167;SDS011;7684;52.150;11.656;2022-10-22T11:54:52;1.83;;;0.90;;
15167;SDS011;7684;52.150;11.656;2022-10-22T11:57:20;2.22;;;0.98;;
15167;SDS011;7684;52.150;11.656;2022-10-22T11:59:50;4.53;;;1.10;;
15167;SDS011;7684;52.150;11.656;2022-10-22T12:05:28;1.85;;;0.90;;
15167;SDS011;7684;52.150;11.656;2022-10-22T12:07:58;2.45;;;1.38;;
15167;SDS011;7684;52.150;11.656;2022-10-22T12:10:26;3.30;;;1.00;;
15167;SDS011;7684;52.150;11.656;2022-10-22T12:12:54;1.55;;;1.10;;
15167;SDS011;7684;52.150;11.656;2022-10-22T12:15:22;3.03;;;0.95;;
15167;SDS011;7684;52.150;11.656;2022-10-22T12:17:49;6.82;;;1.48;;
15167;SDS011;7684;52.150;11.656;2022-10-22T12:20:15;3.53;;;1.20;;
15167;SDS011;7684;52.150;11.656;2022-10-22T12:22:43;2.75;;;1.05;;
15167;SDS011;7684;52.150;11.656;2022-10-22T12:25:15;3.67;;;1.27;;
15167;SDS011;7684;52.150;11.656;2022-10-22T12:27:42;2.90;;;1.38;;
15167;SDS011;7684;52.150;11.656;2022-10-22T12:30:15;2.45;;;1.15;;
15167;SDS011;7684;52.150;11.656;2022-10-22T12:32:42;1.92;;;1.23;;
15167;SDS011;7684;52.150;11.656;2022-10-22T12:35:14;2.47;;;1.27;;
15167;SDS011;7684;52.150;11.656;2022-10-22T12:37:40;2.35;;;1.20;;
15167;SDS011;7684;52.150;11.656;2022-10-22T12:40:18;2.63;;;1.30;;
15167;SDS011;7684;52.150;11.656;2022-10-22T12:42:49;2.90;;;1.10;;
15167;SDS011;7684;52.150;11.656;2022-10-22T12:45:15;3.75;;;1.50;;
15167;SDS011;7684;52.150;11.656;2022-10-22T12:47:44;3.10;;;1.30;;
15167;SDS011;7684;52.150;11.656;2022-10-22T12:50:13;2.88;;;1.75;;
15167;SDS011;7684;52.150;11.656;2022-10-22T12:52:41;3.92;;;1.10;;
15167;SDS011;7684;52.150;11.656;2022-10-22T12:55:13;1.70;;;1.25;;
15167;SDS011;7684;52.150;11.656;2022-10-22T12:57:41;3.80;;;1.30;;
15167;SDS011;7684;52.150;11.656;2022-10-22T13:00:18;5.65;;;1.52;;
15167;SDS011;7684;52.150;11.656;2022-10-22T13:02:45;2.47;;;1.08;;
15167;SDS011;7684;52.150;11.656;2022-10-22T13:05:16;2.17;;;1.30;;
15167;SDS011;7684;52.150;11.656;2022-10-22T13:07:46;1.88;;;1.05;;
15167;SDS011;7684;52.150;11.656;2022-10-22T13:10:14;2.70;;;1.50;;
15167;SDS011;7684;52.150;11.656;2022-10-22T13:12:47;2.33;;;1.60;;
15167;SDS011;7684;52.150;11.656;2022-10-22T13:15:17;3.30;;;1.60;;
15167;SDS011;7684;52.150;11.656;2022-10-22T13:17:44;5.22;;;1.75;;
15167;SDS011;7684;52.150;11.656;2022-10-22T13:20:15;2.38;;;1.60;;
15167;SDS011;7684;52.150;11.656;2022-10-22T13:22:51;3.47;;;1.85;;
15167;SDS011;7684;52.150;11.656;2022-10-22T13:25:19;4.93;;;1.85;;
15167;SDS011;7684;52.150;11.656;2022-10-22T13:27:48;3.05;;;1.55;;
15167;SDS011;7684;52.150;11.656;2022-10-22T13:30:19;3.45;;;1.48;;
15167;SDS011;7684;52.150;11.656;2022-10-22T13:32:50;3.33;;;1.48;;
15167;SDS011;7684;52.150;11.656;2022-10-22T13:35:17;3.35;;;1.50;;
15167;SDS011;7684;52.150;11.656;2022-10-22T13:37:46;3.80;;;1.40;;
15167;SDS011;7684;52.150;11.656;2022-10-22T13:40:13;7.43;;;1.58;;
15167;SDS011;7684;52.150;11.656;2022-10-22T13:42:39;3.03;;;1.30;;
15167;SDS011;7684;52.150;11.656;2022-10-22T13:45:07;3.60;;;1.38;;
15167;SDS011;7684;52.150;11.656;2022-10-22T13:47:34;3.67;;;1.10;;
15167;SDS011;7684;52.150;11.656;2022-10-22T13:50:00;3.63;;;1.70;;
15167;SDS011;7684;52.150;11.656;2022-10-22T13:52:29;1.75;;;1.30;;
15167;SDS011;7684;52.150;11.656;2022-10-22T13:54:58;2.78;;;1.27;;
15167;SDS011;7684;52.150;11.656;2022-10-22T13:57:25;3.80;;;1.45;;
15167;SDS011;7684;52.150;11.656;2022-10-22T13:59:51;1.63;;;1.10;;
15167;SDS011;7684;52.150;11.656;2022-10-22T14:02:19;2.08;;;1.08;;
15167;SDS011;7684;52.150;11.656;2022-10-22T14:04:49;3.45;;;1.50;;
15167;SDS011;7684;52.150;11.656;2022-10-22T14:07:15;3.75;;;1.20;;
15167;SDS011;7684;52.150;11.656;2022-10-22T14:09:42;2.78;;;1.27;;
15167;SDS011;7684;52.150;11.656;2022-10-22T14:12:10;1.83;;;1.05;;
15167;SDS011;7684;52.150;11.656;2022-10-22T14:14:37;3.75;;;1.33;;
15167;SDS011;7684;52.150;11.656;2022-10-22T14:17:03;1.48;;;0.93;;
15167;SDS011;7684;52.150;11.656;2022-10-22T14:19:31;2.35;;;0.95;;
15167;SDS011;7684;52.150;11.656;2022-10-22T14:21:57;2.08;;;1.08;;
15167;SDS011;7684;52.150;11.656;2022-10-22T14:24:24;2.67;;;0.93;;
15167;SDS011;7684;52.150;11.656;2022-10-22T14:26:50;3.08;;;1.50;;
15167;SDS011;7684;52.150;11.656;2022-10-22T14:29:17;2.15;;;1.52;;
15167;SDS011;7684;52.150;11.656;2022-10-22T14:31:43;4.30;;;1.30;;
15167;SDS011;7684;52.150;11.656;2022-10-22T14:34:10;3.45;;;1.33;;
15167;SDS011;7684;52.150;11.656;2022-10-22T14:36:38;4.95;;;1.35;;
15167;SDS011;7684;52.150;11.656;2022-10-22T14:39:04;7.00;;;1.65;;
15167;SDS011;7684;52.150;11.656;2022-10-22T14:41:31;3.35;;;1.45;;
15167;SDS011;7684;52.150;11.656;2022-10-22T14:43:57;3.83;;;1.58;;
15167;SDS011;7684;52.150;11.656;2022-10-22T14:46:24;4.45;;;2.08;;
15167;SDS011;7684;52.150;11.656;2022-10-22T14:48:51;3.05;;;1.60;;
15167;SDS011;7684;52.150;11.656;2022-10-22T14:51:18;4.75;;;1.60;;
15167;SDS011;7684;52.150;11.656;2022-10-22T14:53:46;5.90;;;2.10;;
15167;SDS011;7684;52.150;11.656;2022-10-22T14:56:13;4.80;;;1.63;;
15167;SDS011;7684;52.150;11.656;2022-10-22T14:58:40;3.67;;;2.08;;
15167;SDS011;7684;52.150;11.656;2022-10-22T15:01:07;2.25;;;1.48;;
15167;SDS011;7684;52.150;11.656;2022-10-22T15:03:34;4.45;;;1.80;;
15167;SDS011;7684;52.150;11.656;2022-10-22T15:06:01;5.45;;;2.13;;
15167;SDS011;7684;52.150;11.656;2022-10-22T15:08:28;3.97;;;1.80;;
15167;SDS011;7684;52.150;11.656;2022-10-22T15:10:59;4.03;;;2.00;;
15167;SDS011;7684;52.150;11.656;2022-10-22T15:13:26;2.17;;;1.60;;
15167;SDS011;7684;52.150;11.656;2022-10-22T15:15:53;3.65;;;1.42;;
15167;SDS011;7684;52.150;11.656;2022-10-22T15:18:20;4.30;;;1.83;;
15167;SDS011;7684;52.150;11.656;2022-10-22T15:20:53;3.67;;;1.45;;
15167;SDS011;7684;52.150;11.656;2022-10-22T15:23:19;4.45;;;1.70;;
15167;SDS011;7684;52.150;11.656;2022-10-22T15:25:46;4.00;;;1.90;;
15167;SDS011;7684;52.150;11.656;2022-10-22T15:28:15;2.80;;;1.60;;
15167;SDS011;7684;52.150;11.656;2022-10-22T15:30:41;4.50;;;2.22;;
15167;SDS011;7684;52.150;11.656;2022-10-22T15:33:07;4.05;;;2.38;;
15167;SDS011;7684;52.150;11.656;2022-10-22T15:35:34;7.35;;;2.67;;
15167;SDS011;7684;52.150;11.656;2022-10-22T15:38:01;3.88;;;2.10;;
15167;SDS011;7684;52.150;11.656;2022-10-22T15:40:30;4.28;;;2.10;;
15167;SDS011;7684;52.150;11.656;2022-10-22T15:42:56;4.22;;;1.90;;
15167;SDS011;7684;52.150;11.656;2022-10-22T15:45:24;3.40;;;1.90;;
15167;SDS011;7684;52.150;11.656;2022-10-22T15:47:50;6.00;;;1.98;;
15167;SDS011;7684;52.150;11.656;2022-10-22T15:50:17;7.30;;;2.20;;
15167;SDS011;7684;52.150;11.656;2022-10-22T15:52:43;4.00;;;1.83;;
15167;SDS011;7684;52.150;11.656;2022-10-22T15:55:10;8.73;;;1.98;;
15167;SDS011;7684;52.150;11.656;2022-10-22T15:57:36;5.70;;;2.13;;
15167;SDS011;7684;52.150;11.656;2022-10-22T16:00:03;3.15;;;2.00;;
15167;SDS011;7684;52.150;11.656;2022-10-22T16:02:31;3.55;;;1.52;;
15167;SDS011;7684;52.150;11.656;2022-10-22T16:04:57;5.40;;;2.15;;
15167;SDS011;7684;52.150;11.656;2022-10-22T16:07:23;4.07;;;1.92;;
15167;SDS011;7684;52.150;11.656;2022-10-22T16:09:50;5.00;;;2.00;;
15167;SDS011;7684;52.150;11.656;2022-10-22T16:12:19;4.20;;;1.90;;
15167;SDS011;7684;52.150;11.656;2022-10-22T16:14:48;6.88;;;2.20;;
15167;SDS011;7684;52.150;11.656;2022-10-22T16:17:14;4.22;;;2.03;;
15167;SDS011;7684;52.150;11.656;2022-10-22T16:19:42;4.28;;;2.10;;
15167;SDS011;7684;52.150;11.656;2022-10-22T16:22:09;6.78;;;2.38;;
15167;SDS011;7684;52.150;11.656;2022-10-22T16:24:37;4.28;;;1.92;;
15167;SDS011;7684;52.150;11.656;2022-10-22T16:27:05;4.53;;;2.00;;
15167;SDS011;7684;52.150;11.656;2022-10-22T16:29:31;5.57;;;1.80;;
15167;SDS011;7684;52.150;11.656;2022-10-22T16:31:57;3.40;;;2.00;;
15167;SDS011;7684;52.150;11.656;2022-10-22T16:34:24;5.28;;;2.13;;
15167;SDS011;7684;52.150;11.656;2022-10-22T16:36:53;3.57;;;2.00;;
15167;SDS011;7684;52.150;11.656;2022-10-22T16:39:20;4.95;;;2.03;;
15167;SDS011;7684;52.150;11.656;2022-10-22T16:41:47;7.50;;;1.90;;
15167;SDS011;7684;52.150;11.656;2022-10-22T16:44:14;4.33;;;2.00;;
15167;SDS011;7684;52.150;11.656;2022-10-22T16:46:40;3.27;;;2.17;;
15167;SDS011;7684;52.150;11.656;2022-10-22T16:49:06;4.33;;;2.20;;
15167;SDS011;7684;52.150;11.656;2022-10-22T16:51:33;6.07;;;2.27;;
15167;SDS011;7684;52.150;11.656;2022-10-22T16:54:01;3.57;;;2.00;;
15167;SDS011;7684;52.150;11.656;2022-10-22T16:56:27;6.03;;;2.63;;
15167;SDS011;7684;52.150;11.656;2022-10-22T16:58:54;5.43;;;3.00;;
15167;SDS011;7684;52.150;11.656;2022-10-22T17:01:22;6.37;;;3.50;;
15167;SDS011;7684;52.150;11.656;2022-10-22T17:03:49;9.10;;;3.67;;
15167;SDS011;7684;52.150;11.656;2022-10-22T17:06:16;8.77;;;3.40;;
15167;SDS011;7684;52.150;11.656;2022-10-22T17:08:42;4.47;;;3.07;;
15167;SDS011;7684;52.150;11.656;2022-10-22T17:11:11;6.70;;;2.40;;
15167;SDS011;7684;52.150;11.656;2022-10-22T17:13:41;4.17;;;2.27;;
15167;SDS011;7684;52.150;11.656;2022-10-22T17:16:08;3.10;;;1.90;;
15167;SDS011;7684;52.150;11.656;2022-10-22T17:18:35;2.57;;;1.97;;
15167;SDS011;7684;52.150;11.656;2022-10-22T17:21:02;3.60;;;2.30;;
15167;SDS011;7684;52.150;11.656;2022-10-22T17:23:28;4.13;;;1.87;;
15167;SDS011;7684;52.150;11.656;2022-10-22T17:25:56;4.10;;;1.80;;
15167;SDS011;7684;52.150;11.656;2022-10-22T17:28:24;4.37;;;2.10;;
15167;SDS011;7684;52.150;11.656;2022-10-22T17:31:00;4.03;;;2.43;;
15167;SDS011;7684;52.150;11.656;2022-10-22T17:33:26;3.33;;;2.30;;
15167;SDS011;7684;52.150;11.656;2022-10-22T17:35:53;3.57;;;1.97;;
15167;SDS011;7684;52.150;11.656;2022-10-22T17:38:20;4.53;;;2.00;;
15167;SDS011;7684;52.150;11.656;2022-10-22T17:40:46;4.07;;;2.20;;
15167;SDS011;7684;52.150;11.656;2022-10-22T17:43:12;6.37;;;2.20;;
15167;SDS011;7684;52.150;11.656;2022-10-22T17:45:40;4.00;;;2.57;;
15167;SDS011;7684;52.150;11.656;2022-10-22T17:48:06;3.30;;;1.80;;
15167;SDS011;7684;52.150;11.656;2022-10-22T17:50:33;3.30;;;2.13;;
15167;SDS011;7684;52.150;11.656;2022-10-22T17:52:59;3.60;;;2.27;;
15167;SDS011;7684;52.150;11.656;2022-10-22T17:55:26;6.17;;;2.13;;
15167;SDS011;7684;52.150;11.656;2022-10-22T17:57:53;4.43;;;2.70;;
15167;SDS011;7684;52.150;11.656;2022-10-22T18:00:19;4.77;;;2.30;;
15167;SDS011;7684;52.150;11.656;2022-10-22T18:02:48;5.67;;;2.73;;
15167;SDS011;7684;52.150;11.656;2022-10-22T18:05:14;3.90;;;2.43;;
15167;SDS011;7684;52.150;11.656;2022-10-22T18:07:40;6.07;;;2.60;;
15167;SDS011;7684;52.150;11.656;2022-10-22T18:10:07;4.37;;;2.23;;
15167;SDS011;7684;52.150;11.656;2022-10-22T18:12:34;4.33;;;2.70;;
15167;SDS011;7684;52.150;11.656;2022-10-22T18:15:00;3.87;;;2.30;;
15167;SDS011;7684;52.150;11.656;2022-10-22T18:17:26;4.30;;;2.83;;
15167;SDS011;7684;52.150;11.656;2022-10-22T18:19:55;4.70;;;2.27;;
15167;SDS011;7684;52.150;11.656;2022-10-22T18:22:22;3.57;;;2.50;;
15167;SDS011;7684;52.150;11.656;2022-10-22T18:24:48;6.73;;;2.70;;
15167;SDS011;7684;52.150;11.656;2022-10-22T18:27:15;4.73;;;3.13;;
15167;SDS011;7684;52.150;11.656;2022-10-22T18:29:41;3.53;;;2.60;;
15167;SDS011;7684;52.150;11.656;2022-10-22T18:32:07;5.50;;;3.20;;
15167;SDS011;7684;52.150;11.656;2022-10-22T18:34:34;3.70;;;2.70;;
15167;SDS011;7684;52.150;11.656;2022-10-22T18:37:03;5.43;;;3.33;;
15167;SDS011;7684;52.150;11.656;2022-10-22T18:39:29;4.67;;;3.10;;
15167;SDS011;7684;52.150;11.656;2022-10-22T18:41:55;4.03;;;3.20;;
15167;SDS011;7684;52.150;11.656;2022-10-22T18:44:21;3.57;;;3.27;;
15167;SDS011;7684;52.150;11.656;2022-10-22T18:46:48;3.87;;;3.50;;
15167;SDS011;7684;52.150;11.656;2022-10-22T18:49:16;5.13;;;3.30;;
15167;SDS011;7684;52.150;11.656;2022-10-22T18:51:43;6.27;;;3.47;;
15167;SDS011;7684;52.150;11.656;2022-10-22T18:54:11;5.77;;;3.07;;
15167;SDS011;7684;52.150;11.656;2022-10-22T18:56:38;4.90;;;3.00;;
15167;SDS011;7684;52.150;11.656;2022-10-22T18:59:05;4.50;;;3.00;;
15167;SDS011;7684;52.150;11.656;2022-10-22T19:01:31;6.50;;;3.90;;
15167;SDS011;7684;52.150;11.656;2022-10-22T19:04:01;8.47;;;3.70;;
15167;SDS011;7684;52.150;11.656;2022-10-22T19:06:28;4.70;;;3.50;;
15167;SDS011;7684;52.150;11.656;2022-10-22T19:08:56;5.53;;;4.30;;
15167;SDS011;7684;52.150;11.656;2022-10-22T19:11:23;8.10;;;3.73;;
15167;SDS011;7684;52.150;11.656;2022-10-22T19:13:50;7.63;;;4.20;;
15167;SDS011;7684;52.150;11.656;2022-10-22T19:16:17;4.87;;;3.80;;
15167;SDS011;7684;52.150;11.656;2022-10-22T19:18:47;7.53;;;4.10;;